Terminal Aerodrome Forecast
Issued by NWS

Home | Current Version | Previous Version | Text Only | Print | Product List | Glossary On
Versions: 1 2 3 4 5 6 7 8 9 10 11 12 13 14 15 16 17 18
834
FTUS43 KICT 171728
TAFCNU
TAF
KCNU 171728Z 1718/1818 19014G20KT P6SM SKC
     FM180000 18007KT P6SM BKN200
      TEMPO 1812/1816 4SM BR BKN012=

USA.gov is the U.S. government's official web portal to all federal, state and local government web resources and services.